sensor_id;sensor_type;location;lat;lon;timestamp;pressure;altitude;pressure_sealevel;temperature;humidity
58739;BME280;44512;53.046;18.604;2023-04-06T00:04:50;102376.25;;;4.26;49.33
58739;BME280;44512;53.046;18.604;2023-04-06T00:15:18;102377.46;;;4.22;49.66
58739;BME280;44512;53.046;18.604;2023-04-06T00:25:47;102378.66;;;4.17;49.88
58739;BME280;44512;53.046;18.604;2023-04-06T00:36:15;102377.19;;;4.13;50.13
58739;BME280;44512;53.046;18.604;2023-04-06T00:46:44;102366.09;;;4.07;49.79
58739;BME280;44512;53.046;18.604;2023-04-06T00:57:13;102369.88;;;4.04;50.11
58739;BME280;44512;53.046;18.604;2023-04-06T01:07:40;102361.09;;;4.02;50.38
58739;BME280;44512;53.046;18.604;2023-04-06T01:18:09;102354.27;;;3.98;50.85
58739;BME280;44512;53.046;18.604;2023-04-06T01:28:38;102353.77;;;3.93;51.15
58739;BME280;44512;53.046;18.604;2023-04-06T01:39:06;102355.70;;;3.91;51.21
58739;BME280;44512;53.046;18.604;2023-04-06T01:49:34;102352.29;;;3.89;51.66
58739;BME280;44512;53.046;18.604;2023-04-06T02:00:03;102359.82;;;3.84;52.04
58739;BME280;44512;53.046;18.604;2023-04-06T02:10:32;102352.26;;;3.78;52.34
58739;BME280;44512;53.046;18.604;2023-04-06T02:21:00;102359.54;;;3.76;52.57
58739;BME280;44512;53.046;18.604;2023-04-06T02:31:28;102347.12;;;3.75;52.77
58739;BME280;44512;53.046;18.604;2023-04-06T02:41:56;102354.30;;;3.74;52.71
58739;BME280;44512;53.046;18.604;2023-04-06T02:52:25;102345.42;;;3.74;52.85
58739;BME280;44512;53.046;18.604;2023-04-06T03:02:53;102354.53;;;3.71;52.97
58739;BME280;44512;53.046;18.604;2023-04-06T03:13:22;102359.03;;;3.71;52.74
58739;BME280;44512;53.046;18.604;2023-04-06T03:23:50;102355.63;;;3.69;52.64
58739;BME280;44512;53.046;18.604;2023-04-06T03:34:19;102351.69;;;3.61;52.48
58739;BME280;44512;53.046;18.604;2023-04-06T03:44:47;102373.62;;;3.66;52.75
58739;BME280;44512;53.046;18.604;2023-04-06T03:55:15;102369.23;;;3.65;52.80
58739;BME280;44512;53.046;18.604;2023-04-06T04:05:44;102383.47;;;3.66;52.58
58739;BME280;44512;53.046;18.604;2023-04-06T04:16:12;102380.79;;;3.66;52.35
58739;BME280;44512;53.046;18.604;2023-04-06T04:26:41;102386.15;;;3.66;52.53
58739;BME280;44512;53.046;18.604;2023-04-06T04:37:09;102378.89;;;3.68;52.47
58739;BME280;44512;53.046;18.604;2023-04-06T04:47:38;102388.61;;;3.69;52.62
58739;BME280;44512;53.046;18.604;2023-04-06T04:58:06;102387.42;;;3.73;52.85
58739;BME280;44512;53.046;18.604;2023-04-06T05:08:34;102395.21;;;3.76;52.94
58739;BME280;44512;53.046;18.604;2023-04-06T05:19:03;102404.84;;;3.79;52.95
58739;BME280;44512;53.046;18.604;2023-04-06T05:29:32;102406.34;;;3.83;52.81
58739;BME280;44512;53.046;18.604;2023-04-06T05:40:00;102405.02;;;3.88;52.47
58739;BME280;44512;53.046;18.604;2023-04-06T05:50:28;102398.34;;;3.94;52.19
58739;BME280;44512;53.046;18.604;2023-04-06T06:01:00;102389.83;;;4.00;51.60
58739;BME280;44512;53.046;18.604;2023-04-06T06:11:25;102393.73;;;4.07;51.15
58739;BME280;44512;53.046;18.604;2023-04-06T06:21:54;102402.06;;;4.15;50.64
58739;BME280;44512;53.046;18.604;2023-04-06T06:32:22;102390.63;;;4.25;49.89
58739;BME280;44512;53.046;18.604;2023-04-06T06:42:51;102389.90;;;4.34;48.80
58739;BME280;44512;53.046;18.604;2023-04-06T06:53:19;102385.78;;;4.41;47.44
58739;BME280;44512;53.046;18.604;2023-04-06T07:03:47;102376.27;;;4.48;46.07
58739;BME280;44512;53.046;18.604;2023-04-06T07:14:16;102373.01;;;4.56;45.49
58739;BME280;44512;53.046;18.604;2023-04-06T07:24:44;102371.41;;;4.64;44.91
58739;BME280;44512;53.046;18.604;2023-04-06T07:35:13;102374.34;;;4.73;44.41
58739;BME280;44512;53.046;18.604;2023-04-06T07:45:41;102376.30;;;4.82;44.25
58739;BME280;44512;53.046;18.604;2023-04-06T07:56:09;102369.32;;;4.90;43.61
58739;BME280;44512;53.046;18.604;2023-04-06T08:06:38;102372.25;;;4.99;42.97
58739;BME280;44512;53.046;18.604;2023-04-06T08:17:06;102378.72;;;5.07;42.41
58739;BME280;44512;53.046;18.604;2023-04-06T08:27:35;102376.99;;;5.17;42.06
58739;BME280;44512;53.046;18.604;2023-04-06T08:38:03;102367.45;;;5.25;41.72
58739;BME280;44512;53.046;18.604;2023-04-06T08:48:32;102373.05;;;5.33;41.80
58739;BME280;44512;53.046;18.604;2023-04-06T08:59:00;102362.66;;;5.39;41.46
58739;BME280;44512;53.046;18.604;2023-04-06T09:09:28;102357.38;;;5.49;41.48
58739;BME280;44512;53.046;18.604;2023-04-06T09:19:57;102353.79;;;5.60;41.20
58739;BME280;44512;53.046;18.604;2023-04-06T09:35:32;102351.05;;;5.71;41.25
58739;BME280;44512;53.046;18.604;2023-04-06T09:46:01;102348.31;;;5.82;41.23
58739;BME280;44512;53.046;18.604;2023-04-06T09:56:37;102336.68;;;5.93;41.19
58739;BME280;44512;53.046;18.604;2023-04-06T10:06:59;102331.52;;;6.01;40.74
58739;BME280;44512;53.046;18.604;2023-04-06T10:17:25;102310.92;;;6.11;40.81
58739;BME280;44512;53.046;18.604;2023-04-06T10:28:09;102316.36;;;6.21;41.00
58739;BME280;44512;53.046;18.604;2023-04-06T10:48:51;102294.36;;;6.37;40.87
58739;BME280;44512;53.046;18.604;2023-04-06T10:59:22;102284.49;;;6.47;40.72
58739;BME280;44512;53.046;18.604;2023-04-06T11:09:49;102278.27;;;6.56;40.85
58739;BME280;44512;53.046;18.604;2023-04-06T11:20:16;102266.70;;;6.65;40.79
58739;BME280;44512;53.046;18.604;2023-04-06T11:30:45;102257.66;;;6.76;40.81
58739;BME280;44512;53.046;18.604;2023-04-06T11:41:13;102250.34;;;6.88;40.60
58739;BME280;44512;53.046;18.604;2023-04-06T11:51:41;102240.55;;;6.96;40.64
58739;BME280;44512;53.046;18.604;2023-04-06T12:02:10;102233.49;;;7.05;40.81
58739;BME280;44512;53.046;18.604;2023-04-06T12:12:38;102217.19;;;7.16;40.72
58739;BME280;44512;53.046;18.604;2023-04-06T12:23:06;102210.11;;;7.25;40.60
58739;BME280;44512;53.046;18.604;2023-04-06T12:33:35;102197.60;;;7.34;40.62
58739;BME280;44512;53.046;18.604;2023-04-06T12:44:03;102207.53;;;7.43;40.63
58739;BME280;44512;53.046;18.604;2023-04-06T12:54:31;102178.88;;;7.51;40.71
58739;BME280;44512;53.046;18.604;2023-04-06T13:05:00;102180.56;;;7.62;40.84
58739;BME280;44512;53.046;18.604;2023-04-06T13:15:28;102166.63;;;7.76;40.74
58739;BME280;44512;53.046;18.604;2023-04-06T13:26:02;102154.65;;;7.89;40.82
58739;BME280;44512;53.046;18.604;2023-04-06T13:36:25;102148.06;;;8.01;41.08
58739;BME280;44512;53.046;18.604;2023-04-06T13:46:53;102131.87;;;8.01;41.31
58739;BME280;44512;53.046;18.604;2023-04-06T13:57:22;102136.10;;;8.13;41.46
58739;BME280;44512;53.046;18.604;2023-04-06T14:07:50;102141.49;;;8.13;41.82
58739;BME280;44512;53.046;18.604;2023-04-06T14:18:19;102126.30;;;8.12;42.35
58739;BME280;44512;53.046;18.604;2023-04-06T14:28:47;102118.51;;;8.09;43.28
58739;BME280;44512;53.046;18.604;2023-04-06T14:39:15;102126.88;;;8.06;44.13
58739;BME280;44512;53.046;18.604;2023-04-06T14:49:44;102126.65;;;7.99;44.96
58739;BME280;44512;53.046;18.604;2023-04-06T15:00:13;102122.02;;;7.92;45.87
58739;BME280;44512;53.046;18.604;2023-04-06T15:10:41;102137.91;;;7.85;47.26
58739;BME280;44512;53.046;18.604;2023-04-06T15:21:09;102138.95;;;7.74;47.67
58739;BME280;44512;53.046;18.604;2023-04-06T15:31:37;102140.84;;;7.64;48.22
58739;BME280;44512;53.046;18.604;2023-04-06T15:42:06;102136.46;;;7.53;48.84
58739;BME280;44512;53.046;18.604;2023-04-06T15:52:34;102131.82;;;7.46;48.83
58739;BME280;44512;53.046;18.604;2023-04-06T16:03:03;102128.99;;;7.38;48.41
58739;BME280;44512;53.046;18.604;2023-04-06T16:13:32;102119.08;;;7.28;47.90
58739;BME280;44512;53.046;18.604;2023-04-06T16:23:59;102112.02;;;7.18;47.54
58739;BME280;44512;53.046;18.604;2023-04-06T16:34:32;102109.06;;;7.11;47.57
58739;BME280;44512;53.046;18.604;2023-04-06T16:44:56;102095.75;;;7.00;47.45
58739;BME280;44512;53.046;18.604;2023-04-06T16:55:25;102081.19;;;6.93;47.56
58739;BME280;44512;53.046;18.604;2023-04-06T17:05:53;102092.23;;;6.90;48.20
58739;BME280;44512;53.046;18.604;2023-04-06T17:16:21;102073.12;;;6.83;48.68
58739;BME280;44512;53.046;18.604;2023-04-06T17:26:50;102079.92;;;6.77;49.21
58739;BME280;44512;53.046;18.604;2023-04-06T17:37:18;102097.62;;;6.70;48.66
58739;BME280;44512;53.046;18.604;2023-04-06T17:47:47;102096.50;;;6.63;48.44
58739;BME280;44512;53.046;18.604;2023-04-06T17:58:15;102109.52;;;6.58;49.14
58739;BME280;44512;53.046;18.604;2023-04-06T18:08:43;102102.44;;;6.57;49.92
58739;BME280;44512;53.046;18.604;2023-04-06T18:19:12;102104.13;;;6.58;51.02
58739;BME280;44512;53.046;18.604;2023-04-06T18:29:40;102093.64;;;6.55;52.02
58739;BME280;44512;53.046;18.604;2023-04-06T18:50:37;102082.59;;;6.39;52.78
58739;BME280;44512;53.046;18.604;2023-04-06T19:01:05;102095.05;;;6.40;53.41
58739;BME280;44512;53.046;18.604;2023-04-06T19:11:35;102091.66;;;6.38;53.66
58739;BME280;44512;53.046;18.604;2023-04-06T19:22:02;102090.22;;;6.34;53.43
58739;BME280;44512;53.046;18.604;2023-04-06T19:32:31;102101.28;;;6.31;53.60
58739;BME280;44512;53.046;18.604;2023-04-06T19:42:59;102105.09;;;6.28;53.69
58739;BME280;44512;53.046;18.604;2023-04-06T19:53:27;102105.23;;;6.26;53.86
58739;BME280;44512;53.046;18.604;2023-04-06T20:03:55;102081.30;;;6.23;53.96
58739;BME280;44512;53.046;18.604;2023-04-06T20:14:24;102090.50;;;6.21;54.20
58739;BME280;44512;53.046;18.604;2023-04-06T20:24:52;102072.80;;;6.18;54.44
58739;BME280;44512;53.046;18.604;2023-04-06T20:35:21;102074.05;;;6.14;54.63
58739;BME280;44512;53.046;18.604;2023-04-06T20:45:53;102066.28;;;6.11;54.92
58739;BME280;44512;53.046;18.604;2023-04-06T20:56:19;102063.86;;;6.08;55.21
58739;BME280;44512;53.046;18.604;2023-04-06T21:06:46;102048.55;;;5.99;55.59
58739;BME280;44512;53.046;18.604;2023-04-06T21:17:14;102057.05;;;6.04;55.96
58739;BME280;44512;53.046;18.604;2023-04-06T21:27:43;102051.83;;;6.03;56.30
58739;BME280;44512;53.046;18.604;2023-04-06T21:38:11;102046.30;;;6.04;56.61
58739;BME280;44512;53.046;18.604;2023-04-06T21:48:39;102033.86;;;6.03;57.01
58739;BME280;44512;53.046;18.604;2023-04-06T21:59:08;102028.63;;;6.02;57.43
58739;BME280;44512;53.046;18.604;2023-04-06T22:09:36;102008.97;;;6.01;57.83
58739;BME280;44512;53.046;18.604;2023-04-06T22:20:05;101996.52;;;6.00;58.21
58739;BME280;44512;53.046;18.604;2023-04-06T22:30:33;101983.36;;;5.97;58.80
58739;BME280;44512;53.046;18.604;2023-04-06T22:41:02;101989.73;;;5.96;59.43
58739;BME280;44512;53.046;18.604;2023-04-06T22:51:30;101980.09;;;5.93;60.00
58739;BME280;44512;53.046;18.604;2023-04-06T23:01:58;101968.48;;;5.93;60.54
58739;BME280;44512;53.046;18.604;2023-04-06T23:12:27;101960.43;;;5.93;61.05
58739;BME280;44512;53.046;18.604;2023-04-06T23:22:55;101949.68;;;5.93;61.52
58739;BME280;44512;53.046;18.604;2023-04-06T23:33:24;101927.45;;;5.91;61.78
58739;BME280;44512;53.046;18.604;2023-04-06T23:43:52;101929.41;;;5.89;62.49
58739;BME280;44512;53.046;18.604;2023-04-06T23:54:20;101916.98;;;5.88;62.88
